Time;durP1;ratioP1;P1;durP2;ratioP2;P2;SDS_P1;SDS_P2;PMS_P1;PMS_P2;Temp;Humidity;BMP_temperature;BMP_pressure;BME280_temperature;BME280_humidity;BME280_pressure;Samples;Min_cycle;Max_cycle;Signal;HPM_P1;HPM_P2
2022/02/21 00:01:12;;;;;;;8.00;2.30;;;;;;;8.08;100.00;98115.53;4858281;29;20056;-78
2022/02/21 00:03:38;;;;;;;8.75;1.80;;;;;;;8.02;100.00;98131.97;4858958;29;20055;-76
2022/02/21 00:06:03;;;;;;;2.17;0.98;;;;;;;7.77;100.00;98179.44;4865733;29;20052;-77
2022/02/21 00:08:30;;;;;;;6.80;1.10;;;;;;;7.52;100.00;98189.50;4878269;29;20102;-76
2022/02/21 00:10:56;;;;;;;5.32;0.77;;;;;;;7.24;100.00;98192.88;4853074;29;20691;-76
2022/02/21 00:13:21;;;;;;;5.53;1.60;;;;;;;6.99;100.00;98202.88;4857693;29;20568;-76
2022/02/21 00:15:47;;;;;;;4.35;0.98;;;;;;;6.83;100.00;98194.28;4858519;29;20067;-76
2022/02/21 00:18:13;;;;;;;8.05;1.00;;;;;;;6.74;100.00;98198.03;4857525;29;20040;-76
2022/02/21 00:20:38;;;;;;;3.17;0.75;;;;;;;6.63;100.00;98212.31;4840569;29;20508;-77
2022/02/21 00:23:05;;;;;;;3.53;0.77;;;;;;;6.48;100.00;98247.16;4860197;29;20045;-78
2022/02/21 00:25:31;;;;;;;7.88;1.00;;;;;;;6.45;100.00;98247.56;4868415;29;20054;-77
2022/02/21 00:27:57;;;;;;;4.35;0.77;;;;;;;6.29;100.00;98254.56;4858356;29;20472;-76
2022/02/21 00:30:23;;;;;;;3.88;0.90;;;;;;;6.21;100.00;98272.84;4853967;29;20045;-77
2022/02/21 00:32:49;;;;;;;8.27;0.80;;;;;;;6.06;100.00;98280.66;4857756;29;20099;-77
2022/02/21 00:35:14;;;;;;;7.90;1.17;;;;;;;5.96;100.00;98290.53;4853652;29;20029;-76
2022/02/21 00:37:39;;;;;;;5.50;0.57;;;;;;;5.96;100.00;98293.13;4847362;29;20222;-77
2022/02/21 00:40:06;;;;;;;5.63;0.80;;;;;;;5.85;100.00;98256.09;4882722;29;20395;-76
2022/02/21 00:42:31;;;;;;;3.03;0.60;;;;;;;5.78;100.00;98256.97;4854535;29;20045;-76
2022/02/21 00:44:59;;;;;;;5.55;0.95;;;;;;;5.81;100.00;98267.03;4857136;29;20053;-77
2022/02/21 00:47:26;;;;;;;5.13;0.80;;;;;;;5.72;100.00;98275.91;4869250;29;20041;-76
2022/02/21 00:49:53;;;;;;;7.22;1.05;;;;;;;5.64;100.00;98281.97;4849889;29;20072;-76
2022/02/21 00:52:19;;;;;;;4.70;0.85;;;;;;;5.67;100.00;98263.44;4865849;29;20080;-76
2022/02/21 00:54:45;;;;;;;4.07;1.00;;;;;;;5.64;100.00;98305.38;4872817;29;20597;-77
2022/02/21 00:57:11;;;;;;;7.93;0.95;;;;;;;5.61;100.00;98323.91;4856128;29;20064;-76
2022/02/21 00:59:37;;;;;;;2.58;0.43;;;;;;;5.54;100.00;98325.59;4873186;29;20032;-76
2022/02/21 01:02:03;;;;;;;3.92;0.57;;;;;;;5.43;100.00;98319.81;4872313;29;20044;-77
2022/02/21 01:04:29;;;;;;;2.85;0.30;;;;;;;5.41;100.00;98311.38;4850010;29;20555;-77
2022/02/21 01:06:55;;;;;;;2.05;0.32;;;;;;;5.37;100.00;98297.13;4839800;29;20055;-77
2022/02/21 01:09:22;;;;;;;3.80;0.63;;;;;;;5.34;100.00;98299.25;4858699;29;20075;-77
2022/02/21 01:11:48;;;;;;;3.83;0.50;;;;;;;5.30;100.00;98285.78;4848742;29;20033;-76
2022/02/21 01:14:13;;;;;;;2.28;0.30;;;;;;;5.34;100.00;98307.84;4863480;29;20138;-75
2022/02/21 01:16:39;;;;;;;2.15;0.30;;;;;;;5.31;100.00;98302.19;4871499;29;20041;-77
2022/02/21 01:19:05;;;;;;;0.77;0.30;;;;;;;5.17;100.00;98281.16;4883572;29;20036;-76
2022/02/21 01:21:31;;;;;;;3.05;0.60;;;;;;;5.22;100.00;98296.25;4861618;29;20498;-77
2022/02/21 01:23:57;;;;;;;3.50;0.20;;;;;;;5.18;100.00;98298.38;4872267;29;20096;-76
2022/02/21 01:26:23;;;;;;;0.60;0.20;;;;;;;5.16;100.00;98283.94;4865596;29;20045;-77
2022/02/21 01:28:49;;;;;;;1.60;0.30;;;;;;;5.21;100.00;98300.63;4865770;29;20105;-76
2022/02/21 01:31:15;;;;;;;1.98;0.40;;;;;;;5.16;100.00;98312.50;4864003;29;20052;-77
2022/02/21 01:33:41;;;;;;;1.13;0.30;;;;;;;5.20;100.00;98296.41;4857081;29;20118;-76
2022/02/21 01:36:06;;;;;;;3.92;0.60;;;;;;;5.18;100.00;98305.34;4860662;29;20069;-77
2022/02/21 01:38:32;;;;;;;0.55;0.32;;;;;;;5.13;100.00;98310.28;4858634;29;20045;-76
2022/02/21 01:40:57;;;;;;;2.83;0.45;;;;;;;5.15;100.00;98313.50;4871471;29;20037;-77
2022/02/21 01:43:23;;;;;;;2.08;0.40;;;;;;;5.07;100.00;98299.56;4855722;29;20041;-76
2022/02/21 01:45:49;;;;;;;4.15;0.40;;;;;;;5.08;100.00;98318.56;4859604;29;20041;-77
2022/02/21 01:48:14;;;;;;;2.22;0.60;;;;;;;5.06;100.00;98339.50;4866239;29;20069;-77
2022/02/21 01:50:42;;;;;;;1.60;0.63;;;;;;;5.00;100.00;98336.81;4855894;29;20127;-76
2022/02/21 01:53:07;;;;;;;2.05;0.40;;;;;;;4.96;100.00;98359.72;4872189;29;20043;-77
2022/02/21 01:55:33;;;;;;;1.50;0.35;;;;;;;4.91;100.00;98364.59;4872098;29;20045;-76
2022/02/21 01:57:58;;;;;;;2.95;0.50;;;;;;;4.90;100.00;98380.34;4873868;29;20065;-77
2022/02/21 02:00:24;;;;;;;1.27;0.60;;;;;;;4.75;100.00;98395.84;4856764;29;20072;-76
2022/02/21 02:02:49;;;;;;;3.30;0.73;;;;;;;4.76;100.00;98413.03;4861233;29;20056;-76
2022/02/21 02:05:16;;;;;;;4.28;0.40;;;;;;;4.68;100.00;98409.47;4861383;29;20041;-77
2022/02/21 02:07:43;;;;;;;4.85;0.50;;;;;;;4.57;100.00;98430.56;4875752;29;20129;-77
2022/02/21 02:10:13;;;;;;;5.63;0.43;;;;;;;4.54;100.00;98436.13;4859211;29;20120;-77
2022/02/21 02:12:39;;;;;;;5.47;0.60;;;;;;;4.29;100.00;98464.69;4875583;29;20101;-77
2022/02/21 02:15:19;;;;;;;5.13;0.55;;;;;;;4.03;100.00;98454.44;4888376;29;20041;-76
2022/02/21 02:17:45;;;;;;;2.33;0.50;;;;;;;3.98;100.00;98458.50;4846022;29;20128;-77
2022/02/21 02:20:13;;;;;;;6.30;0.63;;;;;;;3.90;100.00;98456.69;4879213;29;20069;-76
2022/02/21 02:22:40;;;;;;;7.82;0.73;;;;;;;3.84;100.00;98457.31;4845613;29;20093;-77
2022/02/21 02:25:07;;;;;;;7.03;0.85;;;;;;;3.80;100.00;98450.81;4860576;29;20076;-76
2022/02/21 02:27:32;;;;;;;5.65;0.73;;;;;;;3.70;100.00;98456.97;4876430;29;20068;-76
2022/02/21 02:29:59;;;;;;;5.88;0.80;;;;;;;3.64;100.00;98460.19;4860044;29;20076;-76
2022/02/21 02:32:25;;;;;;;15.82;1.48;;;;;;;3.70;100.00;98458.75;4872815;29;20479;-77
2022/02/21 02:34:54;;;;;;;10.85;1.83;;;;;;;3.82;100.00;98467.84;4873370;29;20507;-76
2022/02/21 02:37:22;;;;;;;14.65;1.67;;;;;;;3.76;100.00;98450.34;4869392;29;20040;-76
2022/02/21 02:39:48;;;;;;;9.73;1.60;;;;;;;3.98;100.00;98455.91;4871736;29;20100;-77
2022/02/21 02:42:14;;;;;;;12.90;1.92;;;;;;;3.96;100.00;98463.84;4878785;29;20403;-77
2022/02/21 02:44:41;;;;;;;7.13;1.25;;;;;;;4.05;100.00;98470.66;4862980;29;20128;-77
2022/02/21 02:47:08;;;;;;;8.68;1.40;;;;;;;4.12;100.00;98478.59;4847513;29;20068;-77
2022/02/21 02:49:35;;;;;;;10.25;1.33;;;;;;;4.15;100.00;98478.28;4858462;29;20127;-76
2022/02/21 02:52:00;;;;;;;14.77;1.60;;;;;;;4.10;100.00;98462.38;4863096;29;20051;-77
2022/02/21 02:54:26;;;;;;;13.65;1.80;;;;;;;4.13;100.00;98495.81;4859518;29;20124;-77
2022/02/21 02:56:52;;;;;;;16.05;2.10;;;;;;;4.17;100.00;98497.09;4872414;29;20456;-78
2022/02/21 02:59:18;;;;;;;20.02;2.30;;;;;;;4.21;100.00;98506.19;4874758;29;20124;-76
2022/02/21 03:01:43;;;;;;;24.98;3.58;;;;;;;4.04;100.00;98494.16;4878482;29;20037;-77
2022/02/21 03:04:09;;;;;;;28.33;3.78;;;;;;;4.04;100.00;98494.16;4871861;29;20041;-76
2022/02/21 03:06:36;;;;;;;26.85;2.97;;;;;;;3.78;100.00;98499.44;4869383;29;20453;-77
2022/02/21 03:09:03;;;;;;;34.10;3.20;;;;;;;3.87;100.00;98525.25;4870408;29;20567;-75
2022/02/21 03:11:29;;;;;;;25.00;3.20;;;;;;;3.92;100.00;98521.34;4869458;29;20033;-76
2022/02/21 03:13:59;;;;;;;26.73;3.38;;;;;;;3.88;100.00;98498.34;4877666;29;20041;-75
2022/02/21 03:16:26;;;;;;;19.52;3.00;;;;;;;4.03;100.00;98531.44;4871582;29;20065;-76
2022/02/21 03:18:52;;;;;;;21.50;2.92;;;;;;;4.02;100.00;98537.63;4877008;29;20514;-76
2022/02/21 03:21:18;;;;;;;20.90;3.05;;;;;;;3.79;100.00;98527.81;4879842;29;20043;-76
2022/02/21 03:23:43;;;;;;;14.52;2.55;;;;;;;3.58;100.00;98548.97;4880494;29;20045;-76
2022/02/21 03:26:09;;;;;;;25.90;3.10;;;;;;;3.50;100.00;98557.53;4862275;29;20065;-76
2022/02/21 03:28:34;;;;;;;24.30;3.08;;;;;;;3.41;100.00;98555.84;4891749;29;20037;-76
2022/02/21 03:31:00;;;;;;;31.48;3.28;;;;;;;3.47;100.00;98564.78;4879946;29;20403;-76
2022/02/21 03:33:25;;;;;;;26.67;2.88;;;;;;;3.37;100.00;98559.72;4852012;29;20065;-76
2022/02/21 03:35:51;;;;;;;23.85;3.00;;;;;;;3.41;100.00;98574.00;4874624;29;20109;-76
2022/02/21 03:38:17;;;;;;;20.33;3.05;;;;;;;3.42;100.00;98593.75;4876673;29;20105;-75
2022/02/21 03:40:43;;;;;;;24.35;3.35;;;;;;;3.46;100.00;98584.69;4872540;29;20496;-77
2022/02/21 03:43:09;;;;;;;33.08;4.00;;;;;;;3.44;100.00;98594.41;4852784;29;20044;-75
2022/02/21 03:45:35;;;;;;;28.33;3.97;;;;;;;3.35;100.00;98610.06;4852572;29;20045;-76
2022/02/21 03:48:02;;;;;;;24.80;3.15;;;;;;;3.34;100.00;98604.06;4864999;29;20068;-76
2022/02/21 03:50:28;;;;;;;24.10;3.10;;;;;;;3.32;100.00;98611.19;4851750;29;20057;-77
2022/02/21 03:52:53;;;;;;;31.73;3.13;;;;;;;3.36;100.00;98604.72;4872290;29;20101;-77
2022/02/21 03:55:20;;;;;;;29.35;3.63;;;;;;;3.24;100.00;98624.06;4869765;29;20040;-75
2022/02/21 03:57:46;;;;;;;26.33;3.75;;;;;;;3.14;100.00;98626.75;4872945;29;20045;-76
2022/02/21 04:00:14;;;;;;;27.33;4.22;;;;;;;3.16;100.00;98619.66;4867091;29;20037;-76
2022/02/21 04:02:40;;;;;;;29.75;4.13;;;;;;;3.27;100.00;98631.56;4854838;29;20045;-77
2022/02/21 04:05:08;;;;;;;35.17;3.80;;;;;;;3.23;100.00;98625.06;4874648;29;20139;-76
2022/02/21 04:07:35;;;;;;;39.42;4.50;;;;;;;3.05;100.00;98609.53;4851150;29;20037;-76
2022/02/21 04:10:01;;;;;;;32.33;4.20;;;;;;;3.19;100.00;98629.72;4865414;29;20041;-76
2022/02/21 04:12:26;;;;;;;43.33;4.43;;;;;;;3.19;100.00;98642.69;4872718;29;20404;-76
2022/02/21 04:14:52;;;;;;;43.78;5.35;;;;;;;3.21;100.00;98648.53;4872833;29;20076;-77
2022/02/21 04:17:17;;;;;;;31.73;4.53;;;;;;;3.28;100.00;98653.94;4859071;29;20460;-76
2022/02/21 04:19:46;;;;;;;28.73;4.47;;;;;;;3.41;100.00;98658.69;4874238;29;20107;-76
2022/02/21 04:22:14;;;;;;;36.28;4.15;;;;;;;3.33;100.00;98653.47;4864875;29;20120;-77
2022/02/21 04:24:41;;;;;;;34.47;4.57;;;;;;;3.41;100.00;98671.66;4855003;29;20052;-76
2022/02/21 04:27:07;;;;;;;41.20;5.45;;;;;;;3.45;100.00;98665.22;4862987;29;20040;-77
2022/02/21 04:29:33;;;;;;;30.42;3.83;;;;;;;3.44;100.00;98674.75;4874929;29;20045;-76
2022/02/21 04:31:59;;;;;;;27.05;3.55;;;;;;;3.33;100.00;98687.16;4858948;29;20080;-76
2022/02/21 04:34:25;;;;;;;32.90;4.00;;;;;;;3.11;100.00;98690.06;4857319;29;20041;-76
2022/02/21 04:36:50;;;;;;;27.08;3.75;;;;;;;3.06;100.00;98684.50;4872238;29;20085;-76
2022/02/21 04:39:16;;;;;;;31.15;4.10;;;;;;;2.90;100.00;98692.94;4875150;29;20640;-76
2022/02/21 04:41:41;;;;;;;35.03;3.92;;;;;;;2.89;100.00;98704.25;4864734;29;20041;-76
2022/02/21 04:44:08;;;;;;;22.98;3.65;;;;;;;2.71;100.00;98727.56;4858362;29;20115;-76
2022/02/21 04:46:33;;;;;;;23.33;3.25;;;;;;;2.34;100.00;98725.81;4841676;29;20564;-75
2022/02/21 04:48:59;;;;;;;22.50;2.67;;;;;;;2.03;100.00;98734.78;4853575;29;20044;-76
2022/02/21 04:51:25;;;;;;;18.80;2.88;;;;;;;1.93;100.00;98738.22;4858330;29;20127;-76
2022/02/21 04:53:51;;;;;;;21.98;3.45;;;;;;;1.95;100.00;98725.16;4869383;29;20468;-76
2022/02/21 04:56:16;;;;;;;21.45;3.20;;;;;;;1.89;100.00;98731.69;4871836;29;20036;-76
2022/02/21 04:58:42;;;;;;;22.70;3.50;;;;;;;1.89;100.00;98720.56;4869105;29;20050;-76
2022/02/21 05:01:08;;;;;;;24.35;3.22;;;;;;;1.78;100.00;98721.53;4854604;29;20127;-76
2022/02/21 05:03:33;;;;;;;27.38;3.70;;;;;;;1.87;100.00;98725.06;4864914;29;20469;-76
2022/02/21 05:05:59;;;;;;;27.52;3.47;;;;;;;1.88;100.00;98727.47;4883628;29;20045;-77
2022/02/21 05:08:26;;;;;;;36.53;3.85;;;;;;;1.79;100.00;98714.56;4861917;29;20201;-77
2022/02/21 05:10:52;;;;;;;32.85;3.83;;;;;;;1.88;100.00;98721.50;4871987;29;20518;-77
2022/02/21 05:13:17;;;;;;;22.85;3.35;;;;;;;1.74;100.00;98741.66;4862558;29;20045;-76
2022/02/21 05:15:43;;;;;;;27.40;3.70;;;;;;;1.89;100.00;98734.28;4850873;29;20449;-76
2022/02/21 05:18:08;;;;;;;36.90;3.95;;;;;;;2.00;100.00;98716.97;4844583;29;20065;-76
2022/02/21 05:20:34;;;;;;;28.67;3.63;;;;;;;2.12;100.00;98719.25;4869948;29;20408;-75
2022/02/21 05:23:00;;;;;;;31.83;4.05;;;;;;;2.18;100.00;98720.44;4872149;29;20033;-77
2022/02/21 05:25:26;;;;;;;33.97;4.25;;;;;;;2.28;100.00;98718.66;4852815;29;20716;-76
2022/02/21 05:27:51;;;;;;;34.33;4.38;;;;;;;2.42;100.00;98724.31;4867336;29;20044;-76
2022/02/21 05:30:17;;;;;;;26.52;2.90;;;;;;;2.52;100.00;98732.81;4861951;29;20480;-77
2022/02/21 05:32:43;;;;;;;30.60;3.75;;;;;;;2.54;100.00;98743.84;4869001;29;20047;-77
2022/02/21 05:35:08;;;;;;;32.33;3.80;;;;;;;2.61;100.00;98739.72;4871783;29;20037;-77
2022/02/21 05:37:34;;;;;;;34.28;4.03;;;;;;;2.65;100.00;98748.81;4861829;29;20456;-76
2022/02/21 05:39:59;;;;;;;28.98;4.00;;;;;;;2.64;100.00;98728.28;4846152;29;20033;-77
2022/02/21 05:42:25;;;;;;;32.58;3.35;;;;;;;2.68;100.00;98739.97;4845226;29;20041;-77
2022/02/21 05:44:51;;;;;;;35.22;3.83;;;;;;;2.60;100.00;98727.75;4859190;29;20404;-77
2022/02/21 05:47:16;;;;;;;23.83;3.33;;;;;;;2.61;100.00;98742.31;4861341;29;20097;-77
2022/02/21 05:49:41;;;;;;;27.10;2.97;;;;;;;2.57;100.00;98753.91;4873090;29;20033;-77
2022/02/21 05:52:07;;;;;;;22.35;3.10;;;;;;;2.55;100.00;98749.84;4860035;29;20044;-77
2022/02/21 05:54:33;;;;;;;24.95;3.13;;;;;;;2.53;100.00;98753.38;4860212;29;20076;-76
2022/02/21 05:57:00;;;;;;;23.00;3.53;;;;;;;2.39;100.00;98745.28;4873549;29;20041;-77
2022/02/21 05:59:25;;;;;;;24.40;3.78;;;;;;;2.50;100.00;98761.44;4864344;29;20045;-76
2022/02/21 06:01:51;;;;;;;26.02;4.10;;;;;;;2.44;100.00;98769.78;4856088;29;20073;-76
2022/02/21 06:04:16;;;;;;;20.85;3.15;;;;;;;2.51;100.00;98775.19;4870965;29;20041;-76
2022/02/21 06:06:42;;;;;;;16.58;2.97;;;;;;;2.58;100.00;98799.56;4864729;29;20057;-77
2022/02/21 06:09:08;;;;;;;27.42;3.22;;;;;;;2.32;100.00;98795.00;4867213;29;20045;-77
2022/02/21 06:11:34;;;;;;;18.23;3.13;;;;;;;2.21;100.00;98795.19;4883955;29;20041;-76
2022/02/21 06:14:00;;;;;;;22.45;2.83;;;;;;;2.06;100.00;98817.28;4872744;29;20052;-77
2022/02/21 06:16:26;;;;;;;27.25;3.55;;;;;;;2.01;100.00;98809.13;4868700;29;20154;-77
2022/02/21 06:18:52;;;;;;;25.48;2.95;;;;;;;1.90;100.00;98800.56;4871166;29;20515;-76
2022/02/21 06:21:17;;;;;;;24.67;2.97;;;;;;;1.97;100.00;98811.16;4854895;29;20044;-76
2022/02/21 06:23:43;;;;;;;23.85;3.08;;;;;;;2.02;100.00;98808.97;4860818;29;20483;-76
2022/02/21 06:26:08;;;;;;;29.65;3.60;;;;;;;2.05;100.00;98813.03;4856872;29;20033;-77
2022/02/21 06:28:34;;;;;;;30.55;3.95;;;;;;;2.08;100.00;98820.53;4869626;29;20069;-77
2022/02/21 06:31:00;;;;;;;29.60;3.55;;;;;;;2.08;100.00;98808.41;4843116;29;20044;-75
2022/02/21 06:33:26;;;;;;;29.13;3.30;;;;;;;2.08;100.00;98811.00;4870562;29;20147;-78
2022/02/21 06:35:52;;;;;;;30.45;3.20;;;;;;;2.13;100.00;98806.22;4874762;29;20044;-76
2022/02/21 06:38:18;;;;;;;24.52;3.83;;;;;;;2.15;100.00;98806.09;4858794;29;20476;-77
2022/02/21 06:40:44;;;;;;;22.27;3.75;;;;;;;2.15;100.00;98816.44;4871335;29;20065;-76
2022/02/21 06:43:10;;;;;;;19.85;3.28;;;;;;;2.13;100.00;98826.13;4881026;29;20032;-77
2022/02/21 06:45:36;;;;;;;23.58;2.85;;;;;;;2.18;100.00;98836.84;4878147;29;20033;-76
2022/02/21 06:48:02;;;;;;;27.48;4.03;;;;;;;2.19;100.00;98824.75;4886857;29;20076;-76
2022/02/21 06:50:28;;;;;;;27.30;4.13;;;;;;;2.17;100.00;98804.19;4874225;29;20405;-77
2022/02/21 06:52:53;;;;;;;22.00;3.10;;;;;;;2.24;100.00;98819.94;4876917;29;20040;-76
2022/02/21 06:55:19;;;;;;;28.70;3.35;;;;;;;2.26;100.00;98824.03;4867428;29;20480;-75
2022/02/21 06:57:46;;;;;;;27.23;3.63;;;;;;;2.29;100.00;98838.47;4861692;29;20492;-76
2022/02/21 07:00:14;;;;;;;27.73;2.92;;;;;;;2.30;100.00;98827.16;4876531;29;20098;-76
2022/02/21 07:02:39;;;;;;;22.40;2.95;;;;;;;2.21;100.00;98840.94;4872760;29;20048;-77
2022/02/21 07:05:06;;;;;;;20.33;3.00;;;;;;;2.28;100.00;98847.16;4858909;29;20041;-75
2022/02/21 07:07:33;;;;;;;22.05;3.15;;;;;;;2.31;100.00;98842.53;4853911;29;20080;-76
2022/02/21 07:09:59;;;;;;;24.08;2.95;;;;;;;2.39;100.00;98828.88;4886870;29;20460;-76
2022/02/21 07:12:24;;;;;;;28.38;3.47;;;;;;;2.45;100.00;98841.28;4873985;29;20037;-76
2022/02/21 07:14:50;;;;;;;26.95;3.70;;;;;;;2.48;100.00;98853.13;4852566;29;20041;-76
2022/02/21 07:17:16;;;;;;;25.25;3.47;;;;;;;2.45;100.00;98856.81;4869141;29;20068;-75
2022/02/21 07:19:41;;;;;;;20.63;2.97;;;;;;;2.50;100.00;98857.19;4875524;29;20048;-77
2022/02/21 07:22:07;;;;;;;25.95;3.03;;;;;;;2.45;100.00;98874.94;4860077;29;20432;-76
2022/02/21 07:24:33;;;;;;;25.23;3.03;;;;;;;2.45;100.00;98881.84;4860974;29;20045;-76
2022/02/21 07:27:00;;;;;;;28.10;3.63;;;;;;;2.51;100.00;98878.72;4859523;29;20034;-76
2022/02/21 07:29:26;;;;;;;33.58;3.70;;;;;;;2.39;100.00;98877.25;4868183;29;20045;-76
2022/02/21 07:31:52;;;;;;;30.70;3.40;;;;;;;2.46;100.00;98875.72;4859708;29;20044;-76
2022/02/21 07:34:18;;;;;;;35.47;3.90;;;;;;;2.49;100.00;98878.06;4874260;29;20037;-77
2022/02/21 07:36:44;;;;;;;35.00;3.90;;;;;;;2.42;100.00;98880.38;4850444;29;20045;-76
2022/02/21 07:39:09;;;;;;;32.10;3.88;;;;;;;2.47;100.00;98875.59;4843410;29;20041;-77
2022/02/21 07:41:35;;;;;;;23.15;3.30;;;;;;;2.48;100.00;98879.81;4866477;29;20041;-76
2022/02/21 07:44:01;;;;;;;23.02;3.58;;;;;;;2.51;100.00;98869.19;4850466;29;20041;-76
2022/02/21 07:46:27;;;;;;;20.88;2.45;;;;;;;2.65;100.00;98882.63;4871414;29;20038;-77
2022/02/21 07:48:52;;;;;;;29.20;3.55;;;;;;;2.81;100.00;98884.63;4874262;29;20496;-77
2022/02/21 07:51:18;;;;;;;20.25;2.78;;;;;;;2.91;100.00;98885.41;4867314;29;20049;-76
2022/02/21 07:53:44;;;;;;;22.63;3.05;;;;;;;2.87;100.00;98871.91;4874697;29;20039;-76
2022/02/21 07:56:09;;;;;;;16.10;3.08;;;;;;;2.84;100.00;98858.44;4869950;29;20029;-77
2022/02/21 07:58:34;;;;;;;17.45;2.83;;;;;;;2.91;100.00;98890.56;4851718;29;20493;-76
2022/02/21 08:01:00;;;;;;;14.82;2.10;;;;;;;2.79;100.00;98881.34;4872153;29;20038;-77
2022/02/21 08:03:26;;;;;;;14.20;2.40;;;;;;;2.67;100.00;98884.09;4860971;29;20037;-76
2022/02/21 08:05:55;;;;;;;23.10;2.65;;;;;;;2.59;100.00;98876.25;4874891;29;20117;-77
2022/02/21 08:08:21;;;;;;;24.33;3.28;;;;;;;2.46;100.00;98871.38;4870042;29;20559;-76
2022/02/21 08:10:47;;;;;;;23.45;2.80;;;;;;;2.57;100.00;98900.66;4858143;29;20402;-76
2022/02/21 08:13:12;;;;;;;19.80;3.65;;;;;;;2.48;100.00;98903.09;4868853;29;20116;-76
2022/02/21 08:15:38;;;;;;;24.88;3.85;;;;;;;2.42;100.00;98902.84;4858653;29;20037;-76
2022/02/21 08:18:04;;;;;;;22.27;2.90;;;;;;;2.44;100.00;98913.88;4859496;29;20770;-76
2022/02/21 08:20:29;;;;;;;25.00;3.20;;;;;;;2.33;100.00;98905.31;4875049;29;20053;-77
2022/02/21 08:22:55;;;;;;;21.80;2.92;;;;;;;2.18;100.00;98900.69;4869066;29;20075;-76
2022/02/21 08:25:21;;;;;;;23.38;3.25;;;;;;;2.15;100.00;98914.75;4859492;29;20077;-76
2022/02/21 08:27:47;;;;;;;25.02;3.72;;;;;;;2.02;100.00;98916.78;4873687;29;20059;-75
2022/02/21 08:30:18;;;;;;;29.83;3.45;;;;;;;1.88;100.00;98921.38;4876448;29;20132;-76
2022/02/21 08:32:44;;;;;;;13.95;2.80;;;;;;;1.72;100.00;98914.19;4853954;29;20033;-76
2022/02/21 08:35:11;;;;;;;18.60;2.95;;;;;;;1.52;100.00;98923.66;4858545;29;20650;-75
2022/02/21 08:37:37;;;;;;;21.52;3.40;;;;;;;1.48;100.00;98913.72;4859863;29;20566;-76
2022/02/21 08:40:05;;;;;;;20.40;2.88;;;;;;;1.57;100.00;98932.81;4877280;29;20045;-77
2022/02/21 08:42:30;;;;;;;20.73;3.03;;;;;;;1.45;100.00;98929.50;4840181;29;20485;-76
2022/02/21 08:44:57;;;;;;;20.95;3.40;;;;;;;1.36;100.00;98916.44;4848298;29;20136;-76
2022/02/21 08:47:24;;;;;;;19.83;3.17;;;;;;;1.49;100.00;98918.78;4859295;29;20052;-77
2022/02/21 08:49:49;;;;;;;29.35;3.95;;;;;;;1.50;100.00;98909.25;4874638;29;20032;-76
2022/02/21 08:52:16;;;;;;;18.58;3.38;;;;;;;1.55;100.00;98897.56;4857876;29;20048;-77
2022/02/21 08:54:42;;;;;;;27.25;4.38;;;;;;;1.69;100.00;98916.22;4854198;29;20040;-77
2022/02/21 08:57:07;;;;;;;25.10;3.95;;;;;;;1.81;100.00;98916.91;4852808;29;20025;-75
2022/02/21 08:59:33;;;;;;;20.55;3.58;;;;;;;1.78;100.00;98901.66;4863265;29;20049;-76
2022/02/21 09:01:58;;;;;;;22.50;3.75;;;;;;;1.83;100.00;98897.72;4875224;29;20507;-76
2022/02/21 09:04:24;;;;;;;23.92;3.75;;;;;;;1.91;100.00;98889.28;4862105;29;20041;-76
2022/02/21 09:06:50;;;;;;;24.33;3.63;;;;;;;1.99;100.00;98904.13;4880090;29;20056;-76
2022/02/21 09:09:18;;;;;;;19.00;3.17;;;;;;;1.99;100.00;98897.16;4864382;29;20053;-76
2022/02/21 09:11:45;;;;;;;29.40;3.30;;;;;;;2.11;100.00;98910.78;4863033;29;20109;-76
2022/02/21 09:14:11;;;;;;;19.63;3.75;;;;;;;2.28;100.00;98901.50;4875277;29;20081;-76
2022/02/21 09:16:37;;;;;;;22.95;3.28;;;;;;;2.35;100.00;98905.16;4873330;29;20044;-77
2022/02/21 09:19:02;;;;;;;23.90;3.55;;;;;;;2.34;100.00;98904.34;4861406;29;20036;-79
2022/02/21 09:21:28;;;;;;;24.65;3.67;;;;;;;2.40;100.00;98899.59;4842516;29;20048;-76
2022/02/21 09:23:54;;;;;;;28.90;3.42;;;;;;;2.41;100.00;98902.03;4875872;29;20435;-75
2022/02/21 09:26:20;;;;;;;20.40;3.20;;;;;;;2.49;100.00;98904.75;4859221;29;20124;-76
2022/02/21 09:28:46;;;;;;;25.92;3.55;;;;;;;2.67;100.00;98898.81;4876303;29;20132;-78
2022/02/21 09:31:12;;;;;;;27.63;3.47;;;;;;;2.78;100.00;98903.03;4875566;29;20044;-76
2022/02/21 09:33:37;;;;;;;18.50;3.00;;;;;;;2.76;100.00;98904.94;4869227;29;20072;-76
2022/02/21 09:36:03;;;;;;;18.15;2.63;;;;;;;2.75;100.00;98898.13;4873354;29;20054;-76
2022/02/21 09:38:29;;;;;;;16.98;2.63;;;;;;;2.76;100.00;98904.94;4885348;29;20161;-76
2022/02/21 09:40:56;;;;;;;28.15;3.30;;;;;;;2.84;100.00;98905.84;4869030;29;20101;-76
2022/02/21 09:43:26;;;;;;;22.70;2.83;;;;;;;2.91;100.00;98914.69;4856427;29;20073;-77
2022/02/21 09:46:04;;;;;;;22.38;3.28;;;;;;;2.93;100.00;98922.31;4857094;29;20041;-77
2022/02/21 09:48:31;;;;;;;20.33;3.63;;;;;;;3.06;100.00;98917.63;4866024;29;20060;-76
2022/02/21 09:51:01;;;;;;;18.42;2.88;;;;;;;3.15;100.00;98922.94;4873808;29;20033;-77
2022/02/21 09:53:32;;;;;;;22.50;3.20;;;;;;;3.23;100.00;98912.66;4853818;29;20462;-77
2022/02/21 09:55:58;;;;;;;22.42;3.03;;;;;;;3.53;100.00;98927.09;4860153;29;20049;-78
2022/02/21 09:58:25;;;;;;;23.77;3.92;;;;;;;3.54;100.00;98925.31;4875704;29;20041;-77
2022/02/21 10:00:51;;;;;;;21.10;2.97;;;;;;;3.62;100.00;98918.44;4876362;29;20114;-78
2022/02/21 10:03:43;;;;;;;24.70;3.95;;;;;;;3.86;100.00;98917.03;4859447;29;20456;-77
2022/02/21 10:06:28;;;;;;;20.77;3.10;;;;;;;3.95;100.00;98928.31;4857987;29;20064;-77
2022/02/21 10:08:57;;;;;;;17.77;2.50;;;;;;;4.02;100.00;98926.75;4875803;29;20535;-77
2022/02/21 10:11:31;;;;;;;25.85;3.22;;;;;;;4.09;100.00;98931.19;4869133;29;20067;-77
2022/02/21 10:14:05;;;;;;;24.92;2.97;;;;;;;4.00;100.00;98933.88;4873327;29;20043;-77
2022/02/21 10:16:44;;;;;;;21.92;3.47;;;;;;;4.08;100.00;98944.31;4872206;29;20129;-77
2022/02/21 10:19:18;;;;;;;22.65;2.90;;;;;;;4.05;100.00;98942.00;4861388;29;20567;-77
2022/02/21 10:22:08;;;;;;;29.00;3.40;;;;;;;4.01;100.00;98949.28;4879719;29;20407;-76
2022/02/21 10:24:37;;;;;;;20.90;3.88;;;;;;;4.03;100.00;98943.94;4873855;29;20048;-77
2022/02/21 10:27:12;;;;;;;21.10;3.58;;;;;;;4.08;100.00;98950.31;4875005;29;20041;-77
2022/02/21 10:29:55;;;;;;;25.88;3.05;;;;;;;4.32;100.00;98950.69;4861941;29;20369;-77
2022/02/21 10:32:24;;;;;;;17.48;3.15;;;;;;;4.28;100.00;98963.94;4867541;29;20041;-77
2022/02/21 10:34:51;;;;;;;17.20;2.90;;;;;;;4.19;100.00;98959.66;4872325;29;20566;-77
2022/02/21 10:37:22;;;;;;;25.80;3.75;;;;;;;4.12;100.00;98968.19;4858547;29;20045;-76
2022/02/21 10:39:49;;;;;;;19.00;3.03;;;;;;;4.06;100.00;98954.03;4854635;29;20049;-76
2022/02/21 10:42:27;;;;;;;20.08;3.03;;;;;;;4.06;100.00;98959.22;4872119;29;20037;-76
2022/02/21 10:44:53;;;;;;;23.65;3.17;;;;;;;4.04;100.00;98974.13;4861249;29;20068;-77
2022/02/21 10:47:20;;;;;;;21.10;3.45;;;;;;;4.00;100.00;98970.19;4846209;29;20572;-77
2022/02/21 10:49:47;;;;;;;19.33;2.92;;;;;;;4.05;100.00;98978.31;4877158;29;20384;-76
2022/02/21 10:52:16;;;;;;;22.77;4.18;;;;;;;4.11;100.00;98977.75;4861750;29;20059;-76
2022/02/21 10:54:42;;;;;;;20.15;2.92;;;;;;;4.01;100.00;98977.84;4855825;29;20061;-77
2022/02/21 10:57:09;;;;;;;24.98;3.58;;;;;;;4.02;100.00;98984.63;4863214;29;20101;-77
2022/02/21 10:59:35;;;;;;;23.10;3.03;;;;;;;3.96;100.00;98981.84;4873033;29;20029;-76
2022/02/21 11:02:02;;;;;;;21.58;3.05;;;;;;;3.92;100.00;98980.47;4861376;29;20045;-76
2022/02/21 11:04:30;;;;;;;16.48;2.83;;;;;;;3.90;100.00;98980.63;4856656;29;20071;-76
2022/02/21 11:06:57;;;;;;;23.88;3.30;;;;;;;3.84;100.00;98986.38;4861374;29;20041;-77
2022/02/21 11:09:28;;;;;;;20.25;2.80;;;;;;;3.81;100.00;98984.91;4858807;29;20055;-76
2022/02/21 11:11:59;;;;;;;16.35;2.40;;;;;;;3.89;100.00;98997.16;4856899;29;20072;-77
2022/02/21 11:14:27;;;;;;;19.52;2.83;;;;;;;3.86;100.00;98987.06;4876380;29;20052;-77
2022/02/21 11:16:57;;;;;;;15.75;2.03;;;;;;;3.83;100.00;98990.78;4871255;29;20064;-77
2022/02/21 11:19:23;;;;;;;21.33;2.22;;;;;;;3.82;100.00;98980.53;4850831;29;20511;-76
2022/02/21 11:21:50;;;;;;;11.82;2.20;;;;;;;3.85;100.00;98975.88;4874044;29;20107;-76
2022/02/21 11:24:19;;;;;;;14.65;2.08;;;;;;;3.79;100.00;98980.84;4865967;29;20052;-76